sensor_id;sensor_type;location;lat;lon;timestamp;temperature;humidity
12720;DHT22;6424;48.520;11.228;2022-10-19T00:01:23;14.00;99.90
12720;DHT22;6424;48.520;11.228;2022-10-19T00:04:04;14.00;99.90
12720;DHT22;6424;48.520;11.228;2022-10-19T00:06:45;14.00;99.90
12720;DHT22;6424;48.520;11.228;2022-10-19T00:09:26;14.00;99.90
12720;DHT22;6424;48.520;11.228;2022-10-19T00:12:07;14.00;99.90
12720;DHT22;6424;48.520;11.228;2022-10-19T00:14:47;14.10;99.90
12720;DHT22;6424;48.520;11.228;2022-10-19T00:17:28;14.10;99.90
12720;DHT22;6424;48.520;11.228;2022-10-19T00:19:54;14.10;99.90
12720;DHT22;6424;48.520;11.228;2022-10-19T00:22:20;14.10;99.90
12720;DHT22;6424;48.520;11.228;2022-10-19T00:25:01;14.10;99.90
12720;DHT22;6424;48.520;11.228;2022-10-19T00:27:42;14.10;99.90
12720;DHT22;6424;48.520;11.228;2022-10-19T00:30:24;14.10;99.90
12720;DHT22;6424;48.520;11.228;2022-10-19T00:33:04;14.10;99.90
12720;DHT22;6424;48.520;11.228;2022-10-19T00:35:45;14.10;99.90
12720;DHT22;6424;48.520;11.228;2022-10-19T00:38:27;14.10;99.90
12720;DHT22;6424;48.520;11.228;2022-10-19T00:41:08;14.10;99.90
12720;DHT22;6424;48.520;11.228;2022-10-19T00:46:44;14.10;99.90
12720;DHT22;6424;48.520;11.228;2022-10-19T00:49:32;14.10;99.90
12720;DHT22;6424;48.520;11.228;2022-10-19T00:52:16;14.10;99.90
12720;DHT22;6424;48.520;11.228;2022-10-19T00:54:58;14.10;99.90
12720;DHT22;6424;48.520;11.228;2022-10-19T00:57:39;14.10;99.90
12720;DHT22;6424;48.520;11.228;2022-10-19T01:00:20;14.10;99.90
12720;DHT22;6424;48.520;11.228;2022-10-19T01:03:02;14.20;99.90
12720;DHT22;6424;48.520;11.228;2022-10-19T01:05:43;14.10;99.90
12720;DHT22;6424;48.520;11.228;2022-10-19T01:08:24;14.10;99.90
12720;DHT22;6424;48.520;11.228;2022-10-19T01:20:53;14.20;99.90
12720;DHT22;6424;48.520;11.228;2022-10-19T01:26:45;14.10;99.90
12720;DHT22;6424;48.520;11.228;2022-10-19T01:35:06;14.10;99.90
12720;DHT22;6424;48.520;11.228;2022-10-19T01:37:58;14.10;99.90
12720;DHT22;6424;48.520;11.228;2022-10-19T01:43:39;14.00;99.90
12720;DHT22;6424;48.520;11.228;2022-10-19T01:46:28;14.00;99.90
12720;DHT22;6424;48.520;11.228;2022-10-19T01:52:18;14.00;99.90
12720;DHT22;6424;48.520;11.228;2022-10-19T01:55:01;14.00;99.90
12720;DHT22;6424;48.520;11.228;2022-10-19T01:57:46;14.00;99.90
12720;DHT22;6424;48.520;11.228;2022-10-19T02:00:28;14.00;99.90
12720;DHT22;6424;48.520;11.228;2022-10-19T02:03:12;14.00;99.90
12720;DHT22;6424;48.520;11.228;2022-10-19T02:05:53;14.00;99.90
12720;DHT22;6424;48.520;11.228;2022-10-19T02:08:51;14.00;99.90
12720;DHT22;6424;48.520;11.228;2022-10-19T02:11:18;14.00;99.90
12720;DHT22;6424;48.520;11.228;2022-10-19T02:14:04;14.00;99.90
12720;DHT22;6424;48.520;11.228;2022-10-19T02:16:50;14.00;99.90
12720;DHT22;6424;48.520;11.228;2022-10-19T02:19:17;14.00;99.90
12720;DHT22;6424;48.520;11.228;2022-10-19T02:21:59;14.00;99.90
12720;DHT22;6424;48.520;11.228;2022-10-19T02:24:40;14.00;99.90
12720;DHT22;6424;48.520;11.228;2022-10-19T02:27:21;14.00;99.90
12720;DHT22;6424;48.520;11.228;2022-10-19T02:30:03;14.00;99.90
12720;DHT22;6424;48.520;11.228;2022-10-19T02:32:44;14.10;99.90
12720;DHT22;6424;48.520;11.228;2022-10-19T02:35:25;14.00;99.90
12720;DHT22;6424;48.520;11.228;2022-10-19T02:38:07;14.00;99.90
12720;DHT22;6424;48.520;11.228;2022-10-19T02:44:06;14.00;99.90
12720;DHT22;6424;48.520;11.228;2022-10-19T02:46:53;14.00;99.90
12720;DHT22;6424;48.520;11.228;2022-10-19T02:49:36;14.00;99.90
12720;DHT22;6424;48.520;11.228;2022-10-19T02:52:18;14.00;99.90
12720;DHT22;6424;48.520;11.228;2022-10-19T02:54:59;14.00;99.90
12720;DHT22;6424;48.520;11.228;2022-10-19T02:57:40;14.00;99.90
12720;DHT22;6424;48.520;11.228;2022-10-19T03:00:20;14.00;99.90
12720;DHT22;6424;48.520;11.228;2022-10-19T03:02:46;14.00;99.90
12720;DHT22;6424;48.520;11.228;2022-10-19T03:05:28;14.00;99.90
12720;DHT22;6424;48.520;11.228;2022-10-19T03:08:08;14.00;99.90
12720;DHT22;6424;48.520;11.228;2022-10-19T03:10:49;14.10;99.90
12720;DHT22;6424;48.520;11.228;2022-10-19T03:13:30;14.00;99.90
12720;DHT22;6424;48.520;11.228;2022-10-19T03:16:12;14.00;99.90
12720;DHT22;6424;48.520;11.228;2022-10-19T03:18:52;14.00;99.90
12720;DHT22;6424;48.520;11.228;2022-10-19T03:21:34;14.00;99.90
12720;DHT22;6424;48.520;11.228;2022-10-19T03:24:15;14.00;99.90
12720;DHT22;6424;48.520;11.228;2022-10-19T03:26:56;14.10;99.90
12720;DHT22;6424;48.520;11.228;2022-10-19T03:29:36;14.00;99.90
12720;DHT22;6424;48.520;11.228;2022-10-19T03:32:17;14.00;99.90
12720;DHT22;6424;48.520;11.228;2022-10-19T03:34:58;14.00;99.90
12720;DHT22;6424;48.520;11.228;2022-10-19T03:37:39;14.00;99.90
12720;DHT22;6424;48.520;11.228;2022-10-19T03:40:19;14.00;99.90
12720;DHT22;6424;48.520;11.228;2022-10-19T03:43:00;14.00;99.90
12720;DHT22;6424;48.520;11.228;2022-10-19T03:45:45;14.00;99.90
12720;DHT22;6424;48.520;11.228;2022-10-19T03:48:26;14.00;99.90
12720;DHT22;6424;48.520;11.228;2022-10-19T03:51:10;14.00;99.90
12720;DHT22;6424;48.520;11.228;2022-10-19T03:53:53;14.00;99.90
12720;DHT22;6424;48.520;11.228;2022-10-19T03:56:35;14.00;99.90
12720;DHT22;6424;48.520;11.228;2022-10-19T03:59:15;14.00;99.90
12720;DHT22;6424;48.520;11.228;2022-10-19T04:01:56;14.00;99.90
12720;DHT22;6424;48.520;11.228;2022-10-19T04:04:37;14.00;99.90
12720;DHT22;6424;48.520;11.228;2022-10-19T04:07:18;14.00;99.90
12720;DHT22;6424;48.520;11.228;2022-10-19T04:09:58;14.00;99.90
12720;DHT22;6424;48.520;11.228;2022-10-19T04:12:39;14.00;99.90
12720;DHT22;6424;48.520;11.228;2022-10-19T04:15:20;14.00;99.90
12720;DHT22;6424;48.520;11.228;2022-10-19T04:18:01;14.00;99.90
12720;DHT22;6424;48.520;11.228;2022-10-19T04:20:42;14.00;99.90
12720;DHT22;6424;48.520;11.228;2022-10-19T04:23:08;14.00;99.90
12720;DHT22;6424;48.520;11.228;2022-10-19T04:25:49;14.00;99.90
12720;DHT22;6424;48.520;11.228;2022-10-19T04:28:30;14.00;99.90
12720;DHT22;6424;48.520;11.228;2022-10-19T04:31:11;14.00;99.90
12720;DHT22;6424;48.520;11.228;2022-10-19T04:33:52;14.00;99.90
12720;DHT22;6424;48.520;11.228;2022-10-19T04:36:33;13.90;99.90
12720;DHT22;6424;48.520;11.228;2022-10-19T04:39:14;13.90;99.90
12720;DHT22;6424;48.520;11.228;2022-10-19T04:41:54;13.90;99.90
12720;DHT22;6424;48.520;11.228;2022-10-19T04:44:35;13.90;99.90
12720;DHT22;6424;48.520;11.228;2022-10-19T04:47:16;13.90;99.90
12720;DHT22;6424;48.520;11.228;2022-10-19T04:49:42;13.90;99.90
12720;DHT22;6424;48.520;11.228;2022-10-19T04:52:07;13.90;99.90
12720;DHT22;6424;48.520;11.228;2022-10-19T04:54:48;13.90;99.90
12720;DHT22;6424;48.520;11.228;2022-10-19T04:57:29;13.90;99.90
12720;DHT22;6424;48.520;11.228;2022-10-19T05:00:10;13.90;99.90
12720;DHT22;6424;48.520;11.228;2022-10-19T05:02:51;13.90;99.90
12720;DHT22;6424;48.520;11.228;2022-10-19T05:05:17;13.90;99.90
12720;DHT22;6424;48.520;11.228;2022-10-19T05:07:57;13.90;99.90
12720;DHT22;6424;48.520;11.228;2022-10-19T05:10:23;13.90;99.90
12720;DHT22;6424;48.520;11.228;2022-10-19T05:13:04;13.90;99.90
12720;DHT22;6424;48.520;11.228;2022-10-19T05:16:00;13.80;99.90
12720;DHT22;6424;48.520;11.228;2022-10-19T05:18:42;13.80;99.90
12720;DHT22;6424;48.520;11.228;2022-10-19T05:21:26;13.80;99.90
12720;DHT22;6424;48.520;11.228;2022-10-19T05:24:11;13.80;99.90
12720;DHT22;6424;48.520;11.228;2022-10-19T05:26:52;13.70;99.90
12720;DHT22;6424;48.520;11.228;2022-10-19T05:29:33;13.80;99.90
12720;DHT22;6424;48.520;11.228;2022-10-19T05:31:59;13.80;99.90
12720;DHT22;6424;48.520;11.228;2022-10-19T05:34:39;13.80;99.90
12720;DHT22;6424;48.520;11.228;2022-10-19T05:37:21;13.90;99.90
12720;DHT22;6424;48.520;11.228;2022-10-19T05:40:02;13.80;99.90
12720;DHT22;6424;48.520;11.228;2022-10-19T05:42:43;13.80;99.90
12720;DHT22;6424;48.520;11.228;2022-10-19T05:45:23;13.90;99.90
12720;DHT22;6424;48.520;11.228;2022-10-19T05:48:04;13.80;99.90
12720;DHT22;6424;48.520;11.228;2022-10-19T05:50:54;13.80;99.90
12720;DHT22;6424;48.520;11.228;2022-10-19T05:53:21;13.70;99.90
12720;DHT22;6424;48.520;11.228;2022-10-19T05:56:07;13.60;99.90
12720;DHT22;6424;48.520;11.228;2022-10-19T05:58:33;13.70;99.90
12720;DHT22;6424;48.520;11.228;2022-10-19T06:01:16;13.70;99.90
12720;DHT22;6424;48.520;11.228;2022-10-19T06:03:59;13.70;99.90
12720;DHT22;6424;48.520;11.228;2022-10-19T06:06:43;13.60;99.90
12720;DHT22;6424;48.520;11.228;2022-10-19T06:09:24;13.60;99.90
12720;DHT22;6424;48.520;11.228;2022-10-19T06:12:05;13.60;99.90
12720;DHT22;6424;48.520;11.228;2022-10-19T06:14:49;13.60;99.90
12720;DHT22;6424;48.520;11.228;2022-10-19T06:17:30;13.50;99.90
12720;DHT22;6424;48.520;11.228;2022-10-19T06:20:11;13.60;99.90
12720;DHT22;6424;48.520;11.228;2022-10-19T06:22:52;13.60;99.90
12720;DHT22;6424;48.520;11.228;2022-10-19T06:25:34;13.60;99.90
12720;DHT22;6424;48.520;11.228;2022-10-19T06:28:15;13.60;99.90
12720;DHT22;6424;48.520;11.228;2022-10-19T06:30:57;13.50;99.90
12720;DHT22;6424;48.520;11.228;2022-10-19T06:33:38;13.50;99.90
12720;DHT22;6424;48.520;11.228;2022-10-19T06:36:21;13.50;99.90
12720;DHT22;6424;48.520;11.228;2022-10-19T06:39:03;13.50;99.90
12720;DHT22;6424;48.520;11.228;2022-10-19T06:41:44;13.50;99.90
12720;DHT22;6424;48.520;11.228;2022-10-19T06:44:24;13.60;99.90
12720;DHT22;6424;48.520;11.228;2022-10-19T06:47:06;13.60;99.90
12720;DHT22;6424;48.520;11.228;2022-10-19T06:49:47;13.60;99.90
12720;DHT22;6424;48.520;11.228;2022-10-19T06:52:27;13.70;99.90
12720;DHT22;6424;48.520;11.228;2022-10-19T06:55:08;13.70;99.90
12720;DHT22;6424;48.520;11.228;2022-10-19T06:57:49;13.80;99.90
12720;DHT22;6424;48.520;11.228;2022-10-19T07:00:30;13.80;99.90
12720;DHT22;6424;48.520;11.228;2022-10-19T07:03:11;13.80;99.90
12720;DHT22;6424;48.520;11.228;2022-10-19T07:05:37;13.80;99.90
12720;DHT22;6424;48.520;11.228;2022-10-19T07:08:03;13.80;99.90
12720;DHT22;6424;48.520;11.228;2022-10-19T07:10:47;13.90;99.90
12720;DHT22;6424;48.520;11.228;2022-10-19T07:13:29;13.90;99.90
12720;DHT22;6424;48.520;11.228;2022-10-19T07:16:00;14.00;99.90
12720;DHT22;6424;48.520;11.228;2022-10-19T07:18:42;14.00;99.90
12720;DHT22;6424;48.520;11.228;2022-10-19T07:21:23;14.00;99.90
12720;DHT22;6424;48.520;11.228;2022-10-19T07:24:04;14.10;99.90
12720;DHT22;6424;48.520;11.228;2022-10-19T07:26:44;14.10;99.90
12720;DHT22;6424;48.520;11.228;2022-10-19T07:29:25;14.20;99.90
12720;DHT22;6424;48.520;11.228;2022-10-19T07:32:06;14.20;99.90
12720;DHT22;6424;48.520;11.228;2022-10-19T07:34:47;14.30;99.90
12720;DHT22;6424;48.520;11.228;2022-10-19T07:37:27;14.40;99.90
12720;DHT22;6424;48.520;11.228;2022-10-19T07:40:09;14.40;99.90
12720;DHT22;6424;48.520;11.228;2022-10-19T07:42:50;14.50;99.90
12720;DHT22;6424;48.520;11.228;2022-10-19T07:45:31;14.50;99.90
12720;DHT22;6424;48.520;11.228;2022-10-19T07:48:12;14.60;99.90
12720;DHT22;6424;48.520;11.228;2022-10-19T07:50:38;14.60;99.90
12720;DHT22;6424;48.520;11.228;2022-10-19T07:53:19;14.60;99.90
12720;DHT22;6424;48.520;11.228;2022-10-19T07:56:08;14.60;99.90
12720;DHT22;6424;48.520;11.228;2022-10-19T07:58:50;14.70;99.90
12720;DHT22;6424;48.520;11.228;2022-10-19T08:01:19;14.70;99.90
12720;DHT22;6424;48.520;11.228;2022-10-19T08:03:46;14.70;99.90
12720;DHT22;6424;48.520;11.228;2022-10-19T08:06:27;14.80;99.90
12720;DHT22;6424;48.520;11.228;2022-10-19T08:08:54;14.80;99.90
12720;DHT22;6424;48.520;11.228;2022-10-19T08:11:35;14.80;99.90
12720;DHT22;6424;48.520;11.228;2022-10-19T08:14:16;14.70;99.90
12720;DHT22;6424;48.520;11.228;2022-10-19T08:16:57;14.70;99.90
12720;DHT22;6424;48.520;11.228;2022-10-19T08:19:37;14.80;99.90
12720;DHT22;6424;48.520;11.228;2022-10-19T08:22:22;14.80;99.90
12720;DHT22;6424;48.520;11.228;2022-10-19T08:24:48;14.80;99.90
12720;DHT22;6424;48.520;11.228;2022-10-19T08:27:15;14.90;99.90
12720;DHT22;6424;48.520;11.228;2022-10-19T08:29:41;14.80;99.90
12720;DHT22;6424;48.520;11.228;2022-10-19T08:32:22;14.90;99.90
12720;DHT22;6424;48.520;11.228;2022-10-19T08:35:03;15.00;99.90
12720;DHT22;6424;48.520;11.228;2022-10-19T08:37:43;15.10;99.90
12720;DHT22;6424;48.520;11.228;2022-10-19T08:40:28;15.20;99.90
12720;DHT22;6424;48.520;11.228;2022-10-19T08:45:51;15.20;99.90
12720;DHT22;6424;48.520;11.228;2022-10-19T08:48:35;15.20;99.90
12720;DHT22;6424;48.520;11.228;2022-10-19T08:51:18;15.20;99.90
12720;DHT22;6424;48.520;11.228;2022-10-19T08:54:03;15.20;99.90
12720;DHT22;6424;48.520;11.228;2022-10-19T08:57:27;15.20;99.90
12720;DHT22;6424;48.520;11.228;2022-10-19T09:06:09;14.90;99.90
12720;DHT22;6424;48.520;11.228;2022-10-19T09:08:56;14.90;99.90
12720;DHT22;6424;48.520;11.228;2022-10-19T09:11:43;14.90;99.90
12720;DHT22;6424;48.520;11.228;2022-10-19T09:17:14;14.90;99.90
12720;DHT22;6424;48.520;11.228;2022-10-19T09:20:00;14.90;99.90
12720;DHT22;6424;48.520;11.228;2022-10-19T09:22:53;14.90;99.90
12720;DHT22;6424;48.520;11.228;2022-10-19T09:25:21;15.00;99.90
12720;DHT22;6424;48.520;11.228;2022-10-19T09:28:19;15.00;99.90
12720;DHT22;6424;48.520;11.228;2022-10-19T09:31:04;15.00;99.90
12720;DHT22;6424;48.520;11.228;2022-10-19T09:33:51;15.20;99.90
12720;DHT22;6424;48.520;11.228;2022-10-19T09:36:44;15.30;99.90
12720;DHT22;6424;48.520;11.228;2022-10-19T09:39:27;15.30;99.90
12720;DHT22;6424;48.520;11.228;2022-10-19T09:42:26;15.40;99.90
12720;DHT22;6424;48.520;11.228;2022-10-19T09:45:30;15.50;99.90
12720;DHT22;6424;48.520;11.228;2022-10-19T09:51:01;15.70;99.90
12720;DHT22;6424;48.520;11.228;2022-10-19T09:53:46;15.70;99.90
12720;DHT22;6424;48.520;11.228;2022-10-19T09:56:29;15.80;99.90
12720;DHT22;6424;48.520;11.228;2022-10-19T09:59:21;15.80;99.90
12720;DHT22;6424;48.520;11.228;2022-10-19T10:02:18;16.00;99.90
12720;DHT22;6424;48.520;11.228;2022-10-19T10:05:12;16.10;99.90
12720;DHT22;6424;48.520;11.228;2022-10-19T10:07:54;16.10;99.90
12720;DHT22;6424;48.520;11.228;2022-10-19T10:10:37;16.20;99.90
12720;DHT22;6424;48.520;11.228;2022-10-19T10:13:20;16.30;99.90
12720;DHT22;6424;48.520;11.228;2022-10-19T10:16:06;16.30;99.90
12720;DHT22;6424;48.520;11.228;2022-10-19T10:18:54;16.30;99.90
12720;DHT22;6424;48.520;11.228;2022-10-19T10:21:48;16.40;99.90
12720;DHT22;6424;48.520;11.228;2022-10-19T10:24:31;16.40;99.90
12720;DHT22;6424;48.520;11.228;2022-10-19T10:27:00;16.30;99.90
12720;DHT22;6424;48.520;11.228;2022-10-19T10:29:35;16.30;99.90
12720;DHT22;6424;48.520;11.228;2022-10-19T10:32:20;16.30;99.90
12720;DHT22;6424;48.520;11.228;2022-10-19T10:35:04;16.30;99.90
12720;DHT22;6424;48.520;11.228;2022-10-19T10:37:47;16.30;99.90
12720;DHT22;6424;48.520;11.228;2022-10-19T10:40:29;16.40;99.90
12720;DHT22;6424;48.520;11.228;2022-10-19T10:43:16;16.40;99.90
12720;DHT22;6424;48.520;11.228;2022-10-19T10:48:52;16.70;99.90
12720;DHT22;6424;48.520;11.228;2022-10-19T10:51:48;16.80;99.90
12720;DHT22;6424;48.520;11.228;2022-10-19T10:54:31;16.90;99.90
12720;DHT22;6424;48.520;11.228;2022-10-19T10:57:14;16.90;99.90
12720;DHT22;6424;48.520;11.228;2022-10-19T11:00:13;16.90;99.90
12720;DHT22;6424;48.520;11.228;2022-10-19T11:03:07;16.80;99.90
12720;DHT22;6424;48.520;11.228;2022-10-19T11:06:00;16.70;99.90
12720;DHT22;6424;48.520;11.228;2022-10-19T11:08:59;16.80;99.90
12720;DHT22;6424;48.520;11.228;2022-10-19T11:11:34;16.90;99.90
12720;DHT22;6424;48.520;11.228;2022-10-19T11:14:27;16.90;99.90
12720;DHT22;6424;48.520;11.228;2022-10-19T11:17:21;17.00;99.90
12720;DHT22;6424;48.520;11.228;2022-10-19T11:20:05;17.00;99.90
12720;DHT22;6424;48.520;11.228;2022-10-19T11:23:04;16.90;99.90
12720;DHT22;6424;48.520;11.228;2022-10-19T11:31:50;17.10;99.90
12720;DHT22;6424;48.520;11.228;2022-10-19T11:43:59;16.90;99.90
12720;DHT22;6424;48.520;11.228;2022-10-19T11:52:25;16.70;99.90
12720;DHT22;6424;48.520;11.228;2022-10-19T11:55:15;16.70;99.90
12720;DHT22;6424;48.520;11.228;2022-10-19T12:01:36;16.70;99.90
12720;DHT22;6424;48.520;11.228;2022-10-19T12:07:39;16.90;99.90
12720;DHT22;6424;48.520;11.228;2022-10-19T12:10:31;17.00;99.90
12720;DHT22;6424;48.520;11.228;2022-10-19T12:13:19;17.00;99.90
12720;DHT22;6424;48.520;11.228;2022-10-19T12:16:03;17.10;99.90
12720;DHT22;6424;48.520;11.228;2022-10-19T12:18:43;17.00;99.90
12720;DHT22;6424;48.520;11.228;2022-10-19T12:24:20;17.20;99.90
12720;DHT22;6424;48.520;11.228;2022-10-19T12:27:03;17.40;99.90
12720;DHT22;6424;48.520;11.228;2022-10-19T12:29:46;17.60;99.90
12720;DHT22;6424;48.520;11.228;2022-10-19T12:47:22;18.20;99.90
12720;DHT22;6424;48.520;11.228;2022-10-19T12:50:03;18.20;99.90
12720;DHT22;6424;48.520;11.228;2022-10-19T12:52:45;18.20;99.90
12720;DHT22;6424;48.520;11.228;2022-10-19T12:55:31;18.20;99.90
12720;DHT22;6424;48.520;11.228;2022-10-19T12:58:21;18.10;99.90
12720;DHT22;6424;48.520;11.228;2022-10-19T13:01:04;18.00;99.90
12720;DHT22;6424;48.520;11.228;2022-10-19T13:03:49;17.90;99.90
12720;DHT22;6424;48.520;11.228;2022-10-19T13:06:33;17.80;99.90
12720;DHT22;6424;48.520;11.228;2022-10-19T13:14:55;17.60;99.90
12720;DHT22;6424;48.520;11.228;2022-10-19T13:17:39;17.60;99.90
12720;DHT22;6424;48.520;11.228;2022-10-19T13:25:45;17.80;99.90
12720;DHT22;6424;48.520;11.228;2022-10-19T13:31:26;17.80;99.90
12720;DHT22;6424;48.520;11.228;2022-10-19T13:34:09;17.80;99.90
12720;DHT22;6424;48.520;11.228;2022-10-19T13:37:02;17.80;99.90
12720;DHT22;6424;48.520;11.228;2022-10-19T13:39:43;17.70;99.90
12720;DHT22;6424;48.520;11.228;2022-10-19T13:42:26;17.70;99.90
12720;DHT22;6424;48.520;11.228;2022-10-19T13:45:22;17.60;99.90
12720;DHT22;6424;48.520;11.228;2022-10-19T13:48:12;17.60;99.90
12720;DHT22;6424;48.520;11.228;2022-10-19T13:51:04;17.60;99.90
12720;DHT22;6424;48.520;11.228;2022-10-19T13:54:02;17.60;99.90
12720;DHT22;6424;48.520;11.228;2022-10-19T14:00:10;17.50;99.90
12720;DHT22;6424;48.520;11.228;2022-10-19T14:11:37;17.80;99.90
12720;DHT22;6424;48.520;11.228;2022-10-19T14:14:21;17.90;99.90
12720;DHT22;6424;48.520;11.228;2022-10-19T14:17:02;18.00;99.90
12720;DHT22;6424;48.520;11.228;2022-10-19T14:19:46;17.90;99.90
12720;DHT22;6424;48.520;11.228;2022-10-19T14:22:28;17.90;99.90
12720;DHT22;6424;48.520;11.228;2022-10-19T14:25:21;17.80;99.90
12720;DHT22;6424;48.520;11.228;2022-10-19T14:27:53;17.70;99.90
12720;DHT22;6424;48.520;11.228;2022-10-19T14:30:36;17.70;99.90
12720;DHT22;6424;48.520;11.228;2022-10-19T14:33:17;17.70;99.90
12720;DHT22;6424;48.520;11.228;2022-10-19T14:35:59;17.60;99.90
12720;DHT22;6424;48.520;11.228;2022-10-19T14:43:44;17.40;99.90
12720;DHT22;6424;48.520;11.228;2022-10-19T14:46:32;17.30;99.90
12720;DHT22;6424;48.520;11.228;2022-10-19T14:49:16;17.10;99.90
12720;DHT22;6424;48.520;11.228;2022-10-19T14:51:59;17.00;99.90
12720;DHT22;6424;48.520;11.228;2022-10-19T14:54:44;16.80;99.90
12720;DHT22;6424;48.520;11.228;2022-10-19T14:57:32;16.70;99.90
12720;DHT22;6424;48.520;11.228;2022-10-19T15:00:18;16.70;99.90
12720;DHT22;6424;48.520;11.228;2022-10-19T15:02:57;16.70;99.90
12720;DHT22;6424;48.520;11.228;2022-10-19T15:05:46;16.70;99.90
12720;DHT22;6424;48.520;11.228;2022-10-19T15:08:39;16.80;99.90
12720;DHT22;6424;48.520;11.228;2022-10-19T15:11:32;16.70;99.90
12720;DHT22;6424;48.520;11.228;2022-10-19T15:14:26;16.70;99.90
12720;DHT22;6424;48.520;11.228;2022-10-19T15:17:31;16.70;99.90
12720;DHT22;6424;48.520;11.228;2022-10-19T15:20:33;16.70;99.90
12720;DHT22;6424;48.520;11.228;2022-10-19T15:26:19;16.60;99.90
12720;DHT22;6424;48.520;11.228;2022-10-19T15:29:09;16.50;99.90
12720;DHT22;6424;48.520;11.228;2022-10-19T15:32:17;16.40;99.90
12720;DHT22;6424;48.520;11.228;2022-10-19T15:34:45;16.30;99.90
12720;DHT22;6424;48.520;11.228;2022-10-19T15:37:26;16.10;99.90
12720;DHT22;6424;48.520;11.228;2022-10-19T15:40:19;16.00;99.90
12720;DHT22;6424;48.520;11.228;2022-10-19T15:52:17;15.50;99.90
12720;DHT22;6424;48.520;11.228;2022-10-19T15:54:59;15.40;99.90
12720;DHT22;6424;48.520;11.228;2022-10-19T15:57:41;15.20;99.90
12720;DHT22;6424;48.520;11.228;2022-10-19T16:00:21;15.10;99.90
12720;DHT22;6424;48.520;11.228;2022-10-19T16:03:02;15.10;99.90
12720;DHT22;6424;48.520;11.228;2022-10-19T16:05:43;15.00;99.90
12720;DHT22;6424;48.520;11.228;2022-10-19T16:08:24;14.90;99.90
12720;DHT22;6424;48.520;11.228;2022-10-19T16:11:07;14.80;99.90
12720;DHT22;6424;48.520;11.228;2022-10-19T16:13:49;14.70;99.90
12720;DHT22;6424;48.520;11.228;2022-10-19T16:16:31;14.50;99.90
12720;DHT22;6424;48.520;11.228;2022-10-19T16:19:12;14.50;99.90
12720;DHT22;6424;48.520;11.228;2022-10-19T16:21:52;14.40;99.90
12720;DHT22;6424;48.520;11.228;2022-10-19T16:24:33;14.30;99.90
12720;DHT22;6424;48.520;11.228;2022-10-19T16:27:14;14.20;99.90
12720;DHT22;6424;48.520;11.228;2022-10-19T16:29:55;14.20;99.90
12720;DHT22;6424;48.520;11.228;2022-10-19T16:32:36;14.10;99.90
12720;DHT22;6424;48.520;11.228;2022-10-19T16:35:19;14.00;99.90
12720;DHT22;6424;48.520;11.228;2022-10-19T16:38:00;14.00;99.90
12720;DHT22;6424;48.520;11.228;2022-10-19T16:40:40;13.90;99.90
12720;DHT22;6424;48.520;11.228;2022-10-19T16:43:21;13.80;99.90
12720;DHT22;6424;48.520;11.228;2022-10-19T16:46:03;13.80;99.90
12720;DHT22;6424;48.520;11.228;2022-10-19T16:48:44;13.70;99.90
12720;DHT22;6424;48.520;11.228;2022-10-19T16:51:23;13.60;99.90
12720;DHT22;6424;48.520;11.228;2022-10-19T16:53:53;13.50;99.90
12720;DHT22;6424;48.520;11.228;2022-10-19T16:56:35;13.50;99.90
12720;DHT22;6424;48.520;11.228;2022-10-19T16:59:17;13.50;99.90
12720;DHT22;6424;48.520;11.228;2022-10-19T17:01:58;13.50;99.90
12720;DHT22;6424;48.520;11.228;2022-10-19T17:04:39;13.40;99.90
12720;DHT22;6424;48.520;11.228;2022-10-19T17:07:05;13.30;99.90
12720;DHT22;6424;48.520;11.228;2022-10-19T17:09:46;13.30;99.90
12720;DHT22;6424;48.520;11.228;2022-10-19T17:12:27;13.30;99.90
12720;DHT22;6424;48.520;11.228;2022-10-19T17:15:08;13.20;99.90
12720;DHT22;6424;48.520;11.228;2022-10-19T17:17:49;13.20;99.90
12720;DHT22;6424;48.520;11.228;2022-10-19T17:20:31;13.20;99.90
12720;DHT22;6424;48.520;11.228;2022-10-19T17:23:12;13.10;99.90
12720;DHT22;6424;48.520;11.228;2022-10-19T17:25:53;13.00;99.90
12720;DHT22;6424;48.520;11.228;2022-10-19T17:28:34;13.00;99.90
12720;DHT22;6424;48.520;11.228;2022-10-19T17:31:15;13.00;99.90
12720;DHT22;6424;48.520;11.228;2022-10-19T17:33:56;12.90;99.90
12720;DHT22;6424;48.520;11.228;2022-10-19T17:36:40;12.90;99.90
12720;DHT22;6424;48.520;11.228;2022-10-19T17:39:22;12.90;99.90
12720;DHT22;6424;48.520;11.228;2022-10-19T17:42:03;12.90;99.90
12720;DHT22;6424;48.520;11.228;2022-10-19T17:44:44;12.90;99.90
12720;DHT22;6424;48.520;11.228;2022-10-19T17:47:25;12.80;99.90
12720;DHT22;6424;48.520;11.228;2022-10-19T17:50:06;12.80;99.90
12720;DHT22;6424;48.520;11.228;2022-10-19T17:52:47;12.70;99.90
12720;DHT22;6424;48.520;11.228;2022-10-19T17:55:27;12.70;99.90
12720;DHT22;6424;48.520;11.228;2022-10-19T17:58:08;12.70;99.90
12720;DHT22;6424;48.520;11.228;2022-10-19T18:00:54;12.60;99.90
12720;DHT22;6424;48.520;11.228;2022-10-19T18:03:36;12.60;99.90
12720;DHT22;6424;48.520;11.228;2022-10-19T18:06:26;12.50;99.90
12720;DHT22;6424;48.520;11.228;2022-10-19T18:09:09;12.40;99.90
12720;DHT22;6424;48.520;11.228;2022-10-19T18:11:50;12.40;99.90
12720;DHT22;6424;48.520;11.228;2022-10-19T18:14:31;12.30;99.90
12720;DHT22;6424;48.520;11.228;2022-10-19T18:17:12;12.30;99.90
12720;DHT22;6424;48.520;11.228;2022-10-19T18:19:52;12.20;99.90
12720;DHT22;6424;48.520;11.228;2022-10-19T18:22:33;12.20;99.90
12720;DHT22;6424;48.520;11.228;2022-10-19T18:25:14;12.20;99.90
12720;DHT22;6424;48.520;11.228;2022-10-19T18:27:57;12.10;99.90
12720;DHT22;6424;48.520;11.228;2022-10-19T18:30:23;12.10;99.90
12720;DHT22;6424;48.520;11.228;2022-10-19T18:33:04;12.00;99.90
12720;DHT22;6424;48.520;11.228;2022-10-19T18:35:45;12.00;99.90
12720;DHT22;6424;48.520;11.228;2022-10-19T18:38:25;11.90;99.90
12720;DHT22;6424;48.520;11.228;2022-10-19T18:41:08;11.90;99.90
12720;DHT22;6424;48.520;11.228;2022-10-19T18:43:55;11.80;99.90
12720;DHT22;6424;48.520;11.228;2022-10-19T18:46:36;11.80;99.90
12720;DHT22;6424;48.520;11.228;2022-10-19T18:49:05;11.70;99.90
12720;DHT22;6424;48.520;11.228;2022-10-19T18:51:46;11.70;99.90
12720;DHT22;6424;48.520;11.228;2022-10-19T18:54:28;11.60;99.90
12720;DHT22;6424;48.520;11.228;2022-10-19T18:57:09;11.60;99.90
12720;DHT22;6424;48.520;11.228;2022-10-19T18:59:50;11.50;99.90
12720;DHT22;6424;48.520;11.228;2022-10-19T19:02:16;11.40;99.90
12720;DHT22;6424;48.520;11.228;2022-10-19T19:04:56;11.40;99.90
12720;DHT22;6424;48.520;11.228;2022-10-19T19:07:37;11.40;99.90
12720;DHT22;6424;48.520;11.228;2022-10-19T19:10:18;11.40;99.90
12720;DHT22;6424;48.520;11.228;2022-10-19T19:12:58;11.30;99.90
12720;DHT22;6424;48.520;11.228;2022-10-19T19:15:39;11.30;99.90
12720;DHT22;6424;48.520;11.228;2022-10-19T19:18:20;11.30;99.90
12720;DHT22;6424;48.520;11.228;2022-10-19T19:21:03;11.20;99.90